createdAt,value
2019-03-23T00:00:24.582Z,99.99
2019-03-23T00:01:24.555Z,99.99
2019-03-23T00:02:24.526Z,99.99
2019-03-23T00:03:24.513Z,99.99
2019-03-23T00:04:25.438Z,99.99
2019-03-23T00:05:24.452Z,99.99
2019-03-23T00:06:30.768Z,99.99
2019-03-23T00:07:24.408Z,99.99
2019-03-23T00:08:24.388Z,99.99
2019-03-23T00:09:24.363Z,99.99
2019-03-23T00:10:24.357Z,99.99
2019-03-23T00:11:24.311Z,99.99
2019-03-23T00:12:24.292Z,99.99
2019-03-23T00:13:24.267Z,99.99
2019-03-23T00:14:24.247Z,99.99
2019-03-23T00:15:24.218Z,99.99
2019-03-23T00:16:24.199Z,99.99
2019-03-23T00:17:24.165Z,99.99
2019-03-23T00:18:24.148Z,99.99
2019-03-23T00:19:24.128Z,99.99
2019-03-23T00:20:24.102Z,99.99
2019-03-23T00:21:24.081Z,99.99
2019-03-23T00:22:24.042Z,99.99
2019-03-23T00:23:24.026Z,99.99
2019-03-23T00:24:24.005Z,99.99
2019-03-23T00:25:23.995Z,99.99
2019-03-23T00:26:23.955Z,99.99
2019-03-23T00:27:23.936Z,99.99
2019-03-23T00:28:23.911Z,99.99
2019-03-23T00:29:23.885Z,99.99
2019-03-23T00:30:23.859Z,99.99
2019-03-23T00:31:23.844Z,99.99
2019-03-23T00:32:23.817Z,99.99
2019-03-23T00:33:23.792Z,99.99
2019-03-23T00:34:23.808Z,99.99
2019-03-23T00:35:23.768Z,99.99
2019-03-23T00:36:23.723Z,99.99
2019-03-23T00:37:23.691Z,99.99
2019-03-23T00:38:23.669Z,99.99
2019-03-23T00:39:23.650Z,99.99
2019-03-23T00:40:23.634Z,99.99
2019-03-23T00:41:23.602Z,99.99
2019-03-23T00:42:23.573Z,99.99
2019-03-23T00:43:23.547Z,99.99
2019-03-23T00:44:23.528Z,99.99
2019-03-23T00:45:23.503Z,99.99
2019-03-23T00:46:23.477Z,99.99
2019-03-23T00:47:23.461Z,99.99
2019-03-23T00:48:23.429Z,99.99
2019-03-23T00:49:23.411Z,99.99
2019-03-23T00:50:23.381Z,99.99
2019-03-23T00:51:23.366Z,99.99
2019-03-23T00:52:23.333Z,99.99
2019-03-23T00:53:23.317Z,99.99
2019-03-23T00:54:23.289Z,99.99
2019-03-23T00:55:23.263Z,99.99
2019-03-23T00:56:23.237Z,99.99
2019-03-23T00:57:23.218Z,99.99
2019-03-23T00:58:23.193Z,99.99
2019-03-23T00:59:23.173Z,99.99
2019-03-23T01:00:23.146Z,99.99
2019-03-23T01:01:23.124Z,99.99
2019-03-23T01:02:23.101Z,99.99
2019-03-23T01:03:23.071Z,99.99
2019-03-23T01:04:23.053Z,99.99
2019-03-23T01:05:23.035Z,99.99
2019-03-23T01:06:23.008Z,99.99
2019-03-23T01:07:22.982Z,99.99
2019-03-23T01:08:22.954Z,99.99
2019-03-23T01:09:22.926Z,99.99
2019-03-23T01:10:22.912Z,99.99
2019-03-23T01:11:22.875Z,99.99
2019-03-23T01:12:22.864Z,99.99
2019-03-23T01:13:22.835Z,99.99
2019-03-23T01:14:22.813Z,99.99
2019-03-23T01:15:22.804Z,99.99
2019-03-23T01:16:22.758Z,99.99
2019-03-23T01:17:22.749Z,99.99
2019-03-23T01:18:22.710Z,99.99
2019-03-23T01:19:22.687Z,99.99
2019-03-23T01:20:22.665Z,99.99
2019-03-23T01:21:22.645Z,99.99
2019-03-23T01:22:22.620Z,99.99
2019-03-23T01:23:22.598Z,99.99
2019-03-23T01:24:22.569Z,99.99
2019-03-23T01:25:22.548Z,99.99
2019-03-23T01:26:22.522Z,99.99
2019-03-23T01:27:22.505Z,99.99
2019-03-23T01:28:22.475Z,99.99
2019-03-23T01:29:22.448Z,99.99
2019-03-23T01:30:22.429Z,99.99
2019-03-23T01:31:22.401Z,99.99
2019-03-23T01:32:22.385Z,99.99
2019-03-23T01:33:22.351Z,99.99
2019-03-23T01:34:22.332Z,99.99
2019-03-23T01:35:22.317Z,99.99
2019-03-23T01:36:22.282Z,99.99
2019-03-23T01:37:22.256Z,99.99
2019-03-23T01:38:22.234Z,99.99
2019-03-23T01:39:22.211Z,99.99
2019-03-23T01:40:22.196Z,99.99
2019-03-23T01:41:22.162Z,99.99
2019-03-23T01:42:22.136Z,99.99
2019-03-23T01:43:22.110Z,99.99
2019-03-23T01:44:22.088Z,99.99
2019-03-23T01:45:22.069Z,99.99
2019-03-23T01:46:22.037Z,99.99
2019-03-23T01:47:22.019Z,99.99
2019-03-23T01:48:22.008Z,99.99
2019-03-23T01:49:21.966Z,99.99
2019-03-23T01:50:21.947Z,99.99
2019-03-23T01:51:21.954Z,99.99
2019-03-23T01:52:21.909Z,99.99
2019-03-23T01:53:21.877Z,99.99
2019-03-23T01:54:21.845Z,99.99
2019-03-23T01:55:21.826Z,99.99
2019-03-23T01:56:21.802Z,99.99
2019-03-23T01:57:21.780Z,99.99
2019-03-23T01:58:21.764Z,99.99
2019-03-23T01:59:21.726Z,99.99
2019-03-23T02:00:21.712Z,99.99
2019-03-23T02:01:21.685Z,99.99
2019-03-23T02:02:21.652Z,99.99
2019-03-23T02:03:21.646Z,99.99
2019-03-23T02:04:21.614Z,99.99
2019-03-23T02:05:21.586Z,99.99
2019-03-23T02:06:21.566Z,99.99
2019-03-23T02:07:21.538Z,99.99
2019-03-23T02:08:21.560Z,99.99
2019-03-23T02:09:21.517Z,99.99
2019-03-23T02:10:21.468Z,99.99
2019-03-23T02:11:21.444Z,99.99
2019-03-23T02:12:21.414Z,99.99
2019-03-23T02:13:21.386Z,99.99
2019-03-23T02:14:21.364Z,99.99
2019-03-23T02:15:21.366Z,99.99
2019-03-23T02:16:21.318Z,99.99
2019-03-23T02:17:21.404Z,99.99
2019-03-23T02:18:21.269Z,99.99
2019-03-23T02:19:21.257Z,99.99
2019-03-23T02:20:21.224Z,99.99
2019-03-23T02:21:21.205Z,99.99
2019-03-23T02:22:21.170Z,99.99
2019-03-23T02:23:21.149Z,99.99
2019-03-23T02:24:21.129Z,99.99
2019-03-23T02:25:21.126Z,99.99
2019-03-23T02:26:21.084Z,99.99
2019-03-23T02:27:21.062Z,99.99
2019-03-23T02:28:21.030Z,99.99
2019-03-23T02:29:21.007Z,99.99
2019-03-23T02:30:20.991Z,99.99
2019-03-23T02:31:20.966Z,99.99
2019-03-23T02:32:20.934Z,99.99
2019-03-23T02:33:20.951Z,99.99
2019-03-23T02:34:20.955Z,99.99
2019-03-23T02:35:20.865Z,99.99
2019-03-23T02:36:20.845Z,99.99
2019-03-23T02:37:27.640Z,99.99
2019-03-23T02:38:20.787Z,99.99
2019-03-23T02:39:20.768Z,99.99
2019-03-23T02:40:20.736Z,99.99
2019-03-23T02:41:20.747Z,99.99
2019-03-23T02:42:20.689Z,99.99
2019-03-23T02:43:20.677Z,99.99
2019-03-23T02:44:20.651Z,99.99
2019-03-23T02:45:20.616Z,99.99
2019-03-23T02:46:20.596Z,99.99
2019-03-23T02:47:20.572Z,99.99
2019-03-23T02:48:20.560Z,99.99
2019-03-23T02:49:20.523Z,99.99
2019-03-23T02:50:20.499Z,99.99
2019-03-23T02:51:20.482Z,99.99
2019-03-23T02:52:20.450Z,99.99
2019-03-23T02:53:20.483Z,99.99
2019-03-23T02:54:20.408Z,99.99
2019-03-23T02:55:20.379Z,99.99
2019-03-23T02:56:20.357Z,99.99
2019-03-23T02:57:20.339Z,99.99
2019-03-23T02:58:20.334Z,99.99
2019-03-23T02:59:20.298Z,99.99
2019-03-23T03:00:20.263Z,99.99
2019-03-23T03:01:20.236Z,99.99
2019-03-23T03:02:20.215Z,99.99
2019-03-23T03:03:20.193Z,99.99
2019-03-23T03:04:20.170Z,99.99
2019-03-23T03:05:20.142Z,99.99
2019-03-23T03:06:20.114Z,99.99
2019-03-23T03:07:20.095Z,99.99
2019-03-23T03:08:20.075Z,99.99
2019-03-23T03:09:20.044Z,99.99
2019-03-23T03:10:20.011Z,99.99
2019-03-23T03:11:20.234Z,99.99
2019-03-23T03:12:19.976Z,99.99
2019-03-23T03:13:19.949Z,99.99
2019-03-23T03:14:19.923Z,99.99
2019-03-23T03:15:19.900Z,99.99
2019-03-23T03:16:19.876Z,99.99
2019-03-23T03:17:19.841Z,99.99
2019-03-23T03:18:19.818Z,99.99
2019-03-23T03:19:19.796Z,99.99
2019-03-23T03:20:19.771Z,99.99
2019-03-23T03:21:19.744Z,99.99
2019-03-23T03:22:19.723Z,99.99
2019-03-23T03:23:19.763Z,99.99
2019-03-23T03:24:19.677Z,99.99
2019-03-23T03:25:19.647Z,99.99
2019-03-23T03:26:19.626Z,99.99
2019-03-23T03:27:19.612Z,99.99
2019-03-23T03:28:19.573Z,99.99
2019-03-23T03:29:19.559Z,99.99
2019-03-23T03:30:19.523Z,99.99
2019-03-23T03:31:19.507Z,99.99
2019-03-23T03:32:19.479Z,99.99
2019-03-23T03:33:19.471Z,99.99
2019-03-23T03:34:19.438Z,99.99
2019-03-23T03:35:19.409Z,99.99
2019-03-23T03:36:19.388Z,99.99
2019-03-23T03:37:19.362Z,99.99
2019-03-23T03:38:19.373Z,99.99
2019-03-23T03:39:19.308Z,99.99
2019-03-23T03:40:19.289Z,99.99
2019-03-23T03:41:19.256Z,99.99
2019-03-23T03:42:19.241Z,99.99
2019-03-23T03:43:19.224Z,99.99
2019-03-23T03:44:19.187Z,99.99
2019-03-23T03:45:19.176Z,99.99
2019-03-23T03:46:19.139Z,99.99
2019-03-23T03:47:19.112Z,99.99
2019-03-23T03:48:19.094Z,99.99
2019-03-23T03:49:19.073Z,99.99
2019-03-23T03:50:19.041Z,99.99
2019-03-23T03:51:19.016Z,99.99
2019-03-23T03:52:18.994Z,99.99
2019-03-23T03:53:18.995Z,99.99
2019-03-23T03:54:18.942Z,99.99
2019-03-23T03:55:18.944Z,99.99
2019-03-23T03:56:18.898Z,99.99
2019-03-23T03:57:18.871Z,99.99
2019-03-23T03:58:18.855Z,99.99
2019-03-23T03:59:18.829Z,99.99
2019-03-23T04:00:18.809Z,99.99
2019-03-23T04:01:18.772Z,99.99
2019-03-23T04:02:18.750Z,99.99
2019-03-23T04:03:18.724Z,99.99
2019-03-23T04:04:18.732Z,99.99
2019-03-23T04:05:18.679Z,99.99
2019-03-23T04:06:18.652Z,99.99
2019-03-23T04:07:18.631Z,99.99
2019-03-23T04:08:18.599Z,99.99
2019-03-23T04:09:18.602Z,99.99
2019-03-23T04:10:18.554Z,99.99
2019-03-23T04:11:18.529Z,99.99
2019-03-23T04:12:18.503Z,99.99
2019-03-23T04:13:18.491Z,99.99
2019-03-23T04:14:18.452Z,99.99
2019-03-23T04:15:18.439Z,99.99
2019-03-23T04:16:18.432Z,99.99
2019-03-23T04:17:18.394Z,99.99
2019-03-23T04:18:18.357Z,99.99
2019-03-23T04:19:18.341Z,99.99
2019-03-23T04:20:18.313Z,99.99
2019-03-23T04:21:18.286Z,99.99
2019-03-23T04:22:18.258Z,99.99
2019-03-23T04:23:18.249Z,99.99
2019-03-23T04:24:18.216Z,99.99
2019-03-23T04:25:18.191Z,99.99
2019-03-23T04:26:18.165Z,99.99
2019-03-23T04:27:18.146Z,99.99
2019-03-23T04:28:18.111Z,99.99
2019-03-23T04:29:18.095Z,99.99
2019-03-23T04:30:18.067Z,99.99
2019-03-23T04:31:18.038Z,99.99
2019-03-23T04:32:18.018Z,99.99
2019-03-23T04:33:17.999Z,99.99
2019-03-23T04:34:17.962Z,99.99
2019-03-23T04:35:17.947Z,99.99
2019-03-23T04:36:17.934Z,99.99
2019-03-23T04:37:17.940Z,99.99
2019-03-23T04:38:22.540Z,99.99
2019-03-23T04:39:17.863Z,99.99
2019-03-23T04:40:17.828Z,99.99
2019-03-23T04:41:17.790Z,99.99
2019-03-23T04:42:17.767Z,99.99
2019-03-23T04:43:17.745Z,99.99
2019-03-23T04:44:17.717Z,99.99
2019-03-23T04:45:17.694Z,99.99
2019-03-23T04:46:17.672Z,99.99
2019-03-23T04:47:17.668Z,99.99
2019-03-23T04:48:17.628Z,99.99
2019-03-23T04:49:17.595Z,99.99
2019-03-23T04:50:17.570Z,99.99
2019-03-23T04:51:17.576Z,99.99
2019-03-23T04:52:17.528Z,99.99
2019-03-23T04:53:17.495Z,99.99
2019-03-23T04:54:17.479Z,99.99
2019-03-23T04:55:17.453Z,99.99
2019-03-23T04:56:17.428Z,99.99
2019-03-23T04:57:17.402Z,99.99
2019-03-23T04:58:17.377Z,99.99
2019-03-23T04:59:17.352Z,99.99
2019-03-23T05:00:17.331Z,99.99
2019-03-23T05:01:17.308Z,99.99
2019-03-23T05:02:17.277Z,99.99
2019-03-23T05:03:17.254Z,99.99
2019-03-23T05:04:17.225Z,99.99
2019-03-23T05:05:17.199Z,99.99
2019-03-23T05:06:17.181Z,99.99
2019-03-23T05:07:17.187Z,99.99
2019-03-23T05:08:17.129Z,99.99
2019-03-23T05:09:17.110Z,99.99
2019-03-23T05:10:17.088Z,99.99
2019-03-23T05:11:17.055Z,99.99
2019-03-23T05:12:17.036Z,99.99
2019-03-23T05:13:17.006Z,99.99
2019-03-23T05:14:16.989Z,99.99
2019-03-23T05:15:16.962Z,99.99
2019-03-23T05:16:16.937Z,99.99
2019-03-23T05:17:16.947Z,99.99
2019-03-23T05:18:16.885Z,99.99
2019-03-23T05:19:16.863Z,99.99
2019-03-23T05:20:16.838Z,99.99
2019-03-23T05:21:16.815Z,99.99
2019-03-23T05:22:16.789Z,99.99
2019-03-23T05:23:16.763Z,99.99
2019-03-23T05:24:16.774Z,99.99
2019-03-23T05:25:16.718Z,99.99
2019-03-23T05:26:16.683Z,99.99
2019-03-23T05:27:16.667Z,99.99
2019-03-23T05:28:16.635Z,99.99
2019-03-23T05:29:16.609Z,99.99
2019-03-23T05:30:16.585Z,99.99
2019-03-23T05:31:16.575Z,99.99
2019-03-23T05:32:16.541Z,99.99
2019-03-23T05:33:16.512Z,99.99
2019-03-23T05:34:16.506Z,99.99
2019-03-23T05:35:16.484Z,99.99
2019-03-23T05:36:16.449Z,99.99
2019-03-23T05:37:16.416Z,99.99
2019-03-23T05:38:16.394Z,99.99
2019-03-23T05:39:16.371Z,99.99
2019-03-23T05:40:16.346Z,99.99
2019-03-23T05:41:16.328Z,99.99
2019-03-23T05:42:16.298Z,99.99
2019-03-23T05:43:16.268Z,99.99
2019-03-23T05:44:16.253Z,99.99
2019-03-23T05:45:16.218Z,99.99
2019-03-23T05:46:16.199Z,99.99
2019-03-23T05:47:16.169Z,99.99
2019-03-23T05:48:16.147Z,99.99
2019-03-23T05:49:16.119Z,99.99
2019-03-23T05:50:16.094Z,99.99
2019-03-23T05:51:16.071Z,99.99
2019-03-23T05:52:16.058Z,99.99
2019-03-23T05:53:16.030Z,99.99
2019-03-23T05:54:15.997Z,99.99
2019-03-23T05:55:15.977Z,99.99
2019-03-23T05:56:15.953Z,99.99
2019-03-23T05:57:15.934Z,99.99
2019-03-23T05:58:15.906Z,99.99
2019-03-23T05:59:15.883Z,99.99
2019-03-23T06:00:15.851Z,99.99
2019-03-23T06:01:15.832Z,99.99
2019-03-23T06:02:15.806Z,99.99
2019-03-23T06:03:15.778Z,99.99
2019-03-23T06:04:15.756Z,99.99
2019-03-23T06:05:15.733Z,99.99
2019-03-23T06:06:15.705Z,99.99
2019-03-23T06:07:15.682Z,99.99
2019-03-23T06:08:15.660Z,99.99
2019-03-23T06:09:15.645Z,99.99
2019-03-23T06:10:15.617Z,99.99
2019-03-23T06:11:15.631Z,99.99
2019-03-23T06:12:17.553Z,99.99
2019-03-23T06:13:15.540Z,99.99
2019-03-23T06:14:15.512Z,99.99
2019-03-23T06:15:15.490Z,99.99
2019-03-23T06:16:17.753Z,99.99
2019-03-23T06:17:15.441Z,99.99
2019-03-23T06:18:15.419Z,99.99
2019-03-23T06:19:15.386Z,99.99
2019-03-23T06:20:15.368Z,99.99
2019-03-23T06:21:15.340Z,99.99
2019-03-23T06:22:15.323Z,99.99
2019-03-23T06:23:15.319Z,99.99
2019-03-23T06:24:15.276Z,99.99
2019-03-23T06:25:15.438Z,99.99
2019-03-23T06:26:15.224Z,99.99
2019-03-23T06:27:15.196Z,99.99
2019-03-23T06:28:15.177Z,99.99
2019-03-23T06:29:15.147Z,99.99
2019-03-23T06:30:15.157Z,99.99
2019-03-23T06:31:15.106Z,99.99
2019-03-23T06:32:15.086Z,99.99
2019-03-23T06:33:15.057Z,99.99
2019-03-23T06:34:15.029Z,99.99
2019-03-23T06:35:15.016Z,99.99
2019-03-23T06:36:14.990Z,99.99
2019-03-23T06:37:14.974Z,99.99
2019-03-23T06:38:16.362Z,99.99
2019-03-23T06:39:14.909Z,99.99
2019-03-23T06:40:14.890Z,99.99
2019-03-23T06:41:14.867Z,99.99
2019-03-23T06:42:14.840Z,99.99
2019-03-23T06:43:14.816Z,99.99
2019-03-23T06:44:14.791Z,99.99
2019-03-23T06:45:14.775Z,99.99
2019-03-23T06:46:14.755Z,99.99
2019-03-23T06:47:14.725Z,99.99
2019-03-23T06:48:14.707Z,99.99
2019-03-23T06:49:14.679Z,99.99
2019-03-23T06:50:14.669Z,99.99
2019-03-23T06:51:14.631Z,99.99
2019-03-23T06:52:14.640Z,99.99
2019-03-23T06:53:14.579Z,99.99
2019-03-23T06:54:14.556Z,99.99
2019-03-23T06:55:14.534Z,99.99
2019-03-23T06:56:14.518Z,99.99
2019-03-23T06:57:14.486Z,99.99
2019-03-23T06:58:14.463Z,99.99
2019-03-23T06:59:14.452Z,99.99
2019-03-23T07:00:14.423Z,99.99
2019-03-23T07:01:14.396Z,99.99
2019-03-23T07:02:14.374Z,99.99
2019-03-23T07:03:14.357Z,99.99
2019-03-23T07:04:14.326Z,99.99
2019-03-23T07:05:14.308Z,99.99
2019-03-23T07:06:14.286Z,99.99
2019-03-23T07:07:14.258Z,99.99
2019-03-23T07:08:14.236Z,99.99
2019-03-23T07:09:16.375Z,99.99
2019-03-23T07:10:14.213Z,99.99
2019-03-23T07:11:14.172Z,99.99
2019-03-23T07:12:14.153Z,99.99
2019-03-23T07:13:14.122Z,99.99
2019-03-23T07:14:14.109Z,99.99
2019-03-23T07:15:20.019Z,99.99
2019-03-23T07:16:14.058Z,99.99
2019-03-23T07:17:14.033Z,99.79
2019-03-23T07:18:14.011Z,99.79
2019-03-23T07:19:13.994Z,99.99
2019-03-23T07:20:13.969Z,99.99
2019-03-23T07:21:13.946Z,99.99
2019-03-23T07:22:13.924Z,99.99
2019-03-23T07:23:13.902Z,99.99
2019-03-23T07:24:13.894Z,99.88
2019-03-23T07:25:13.865Z,99.99
2019-03-23T07:26:13.841Z,99.88
2019-03-23T07:27:13.818Z,99.55
2019-03-23T07:28:13.803Z,99.99
2019-03-23T07:29:13.774Z,99.99
2019-03-23T07:30:13.777Z,99.99
2019-03-23T07:31:13.732Z,98.99
2019-03-23T07:32:13.703Z,97.56
2019-03-23T07:33:13.685Z,95.89
2019-03-23T07:34:13.662Z,93.93
2019-03-23T07:35:13.639Z,92.07
2019-03-23T07:36:13.617Z,91.21
2019-03-23T07:37:13.602Z,89.35
2019-03-23T07:38:13.582Z,88.11
2019-03-23T07:39:13.561Z,86.82
2019-03-23T07:40:13.535Z,86.47
2019-03-23T07:41:13.564Z,85.05
2019-03-23T07:42:13.501Z,85.18
2019-03-23T07:43:13.482Z,85.13
2019-03-23T07:44:13.458Z,82.01
2019-03-23T07:45:13.433Z,78.89
2019-03-23T07:46:13.496Z,78.99
2019-03-23T07:47:13.397Z,78.17
2019-03-23T07:48:13.374Z,76.57
2019-03-23T07:49:13.378Z,73.51
2019-03-23T07:50:13.342Z,73.09
2019-03-23T07:51:13.320Z,74.27
2019-03-23T07:52:13.292Z,75.62
2019-03-23T07:53:13.280Z,74.02
2019-03-23T07:54:13.275Z,71.50
2019-03-23T07:55:13.241Z,70.09
2019-03-23T07:56:13.219Z,71.57
2019-03-23T07:57:13.201Z,69.17
2019-03-23T07:58:13.191Z,70.93
2019-03-23T07:59:13.168Z,71.22
2019-03-23T08:00:13.153Z,70.29
2019-03-23T08:01:13.140Z,68.44
2019-03-23T08:02:13.113Z,71.70
2019-03-23T08:03:13.096Z,68.15
2019-03-23T08:04:13.090Z,66.33
2019-03-23T08:05:13.067Z,65.94
2019-03-23T08:06:13.045Z,66.42
2019-03-23T08:07:13.035Z,66.23
2019-03-23T08:08:13.014Z,67.54
2019-03-23T08:09:20.468Z,69.68
2019-03-23T08:10:12.984Z,69.01
2019-03-23T08:11:12.994Z,66.61
2019-03-23T08:12:12.950Z,62.96
2019-03-23T08:13:12.958Z,61.55
2019-03-23T08:14:12.918Z,62.39
2019-03-23T08:15:12.909Z,63.35
2019-03-23T08:16:12.892Z,63.51
2019-03-23T08:17:12.880Z,64.12
2019-03-23T08:18:12.857Z,64.31
2019-03-23T08:19:12.841Z,66.03
2019-03-23T08:20:12.832Z,62.96
2019-03-23T08:21:12.810Z,62.90
2019-03-23T08:22:12.804Z,61.52
2019-03-23T08:23:12.793Z,61.52
2019-03-23T08:24:12.774Z,61.81
2019-03-23T08:25:12.758Z,61.52
2019-03-23T08:26:12.745Z,61.62
2019-03-23T08:27:12.728Z,61.72
2019-03-23T08:28:12.725Z,64.69
2019-03-23T08:29:12.690Z,64.05
2019-03-23T08:30:12.677Z,63.06
2019-03-23T08:31:12.675Z,63.38
2019-03-23T08:32:12.650Z,61.91
2019-03-23T08:33:12.646Z,61.81
2019-03-23T08:34:12.620Z,61.08
2019-03-23T08:35:12.612Z,61.17
2019-03-23T08:36:12.594Z,61.49
2019-03-23T08:37:12.586Z,61.49
2019-03-23T08:38:12.565Z,59.60
2019-03-23T08:39:12.552Z,60.75
2019-03-23T08:40:12.537Z,60.27
2019-03-23T08:41:12.526Z,59.69
2019-03-23T08:42:12.506Z,61.43
2019-03-23T08:43:12.499Z,61.74
2019-03-23T08:44:12.489Z,59.41
2019-03-23T08:45:12.466Z,59.47
2019-03-23T08:46:12.459Z,60.43
2019-03-23T08:47:12.443Z,60.66
2019-03-23T08:48:12.430Z,60.21
2019-03-23T08:49:12.407Z,61.07
2019-03-23T08:50:12.405Z,59.44
2019-03-23T08:51:12.385Z,58.64
2019-03-23T08:52:12.369Z,60.46
2019-03-23T08:53:12.363Z,59.22
2019-03-23T08:54:12.347Z,60.14
2019-03-23T08:55:12.336Z,60.56
2019-03-23T08:56:12.330Z,60.66
2019-03-23T08:57:12.298Z,59.69
2019-03-23T08:58:12.295Z,58.83
2019-03-23T08:59:12.281Z,60.59
2019-03-23T09:00:12.263Z,59.12
2019-03-23T09:01:12.253Z,59.41
2019-03-23T09:02:12.237Z,59.24
2019-03-23T09:03:12.247Z,59.24
2019-03-23T09:04:12.206Z,59.63
2019-03-23T09:05:12.206Z,62.48
2019-03-23T09:06:12.184Z,61.75
2019-03-23T09:07:12.170Z,62.19
2019-03-23T09:08:12.167Z,64.31
2019-03-23T09:09:12.142Z,65.11
2019-03-23T09:10:12.128Z,64.43
2019-03-23T09:11:20.266Z,62.74
2019-03-23T09:12:12.106Z,63.41
2019-03-23T09:13:12.091Z,63.57
2019-03-23T09:14:12.073Z,63.54
2019-03-23T09:15:12.068Z,63.48
2019-03-23T09:16:12.045Z,60.98
2019-03-23T09:17:12.029Z,61.87
2019-03-23T09:18:12.034Z,60.66
2019-03-23T09:19:12.007Z,59.69
2019-03-23T09:20:11.996Z,60.75
2019-03-23T09:21:12.940Z,59.28
2019-03-23T09:22:11.965Z,59.38
2019-03-23T09:23:11.961Z,61.55
2019-03-23T09:24:11.942Z,61.84
2019-03-23T09:25:11.925Z,62.13
2019-03-23T09:26:13.659Z,63.32
2019-03-23T09:27:12.694Z,62.00
2019-03-23T09:28:11.888Z,63.67
2019-03-23T09:29:11.869Z,61.10
2019-03-23T09:30:11.857Z,61.49
2019-03-23T09:31:11.850Z,60.49
2019-03-23T09:32:11.840Z,58.76
2019-03-23T09:33:11.821Z,58.60
2019-03-23T09:34:11.806Z,58.67
2019-03-23T09:35:11.795Z,59.72
2019-03-23T09:36:11.783Z,58.92
2019-03-23T09:37:11.763Z,59.76
2019-03-23T09:38:11.753Z,61.68
2019-03-23T09:39:11.742Z,61.97
2019-03-23T09:40:11.758Z,61.61
2019-03-23T09:41:11.710Z,62.23
2019-03-23T09:42:11.706Z,59.66
2019-03-23T09:43:11.815Z,59.49
2019-03-23T09:44:11.672Z,59.59
2019-03-23T09:45:14.076Z,58.63
2019-03-23T09:46:11.646Z,56.99
2019-03-23T09:47:11.641Z,56.99
2019-03-23T09:48:11.621Z,58.12
2019-03-23T09:49:11.615Z,59.66
2019-03-23T09:50:11.599Z,58.44
2019-03-23T09:51:11.583Z,57.64
2019-03-23T09:52:11.573Z,58.40
2019-03-23T09:53:11.557Z,61.49
2019-03-23T09:54:11.544Z,59.66
2019-03-23T09:55:11.544Z,59.43
2019-03-23T09:56:11.522Z,57.76
2019-03-23T09:57:11.509Z,59.20
2019-03-23T09:58:11.503Z,58.89
2019-03-23T09:59:11.490Z,58.79
2019-03-23T10:00:11.474Z,59.08
2019-03-23T10:01:11.458Z,60.07
2019-03-23T10:02:11.455Z,58.34
2019-03-23T10:03:11.445Z,57.86
2019-03-23T10:04:11.426Z,57.69
2019-03-23T10:05:11.418Z,60.52
2019-03-23T10:06:11.404Z,59.36
2019-03-23T10:07:11.394Z,57.46
2019-03-23T10:08:11.385Z,58.33
2019-03-23T10:09:11.369Z,56.79
2019-03-23T10:10:21.352Z,55.51
2019-03-23T10:11:11.344Z,56.85
2019-03-23T10:12:11.338Z,57.56
2019-03-23T10:13:11.326Z,56.54
2019-03-23T10:14:11.317Z,57.21
2019-03-23T10:15:11.314Z,61.48
2019-03-23T10:16:11.328Z,59.17
2019-03-23T10:17:11.286Z,60.61
2019-03-23T10:18:11.269Z,57.95
2019-03-23T10:19:11.267Z,60.00
2019-03-23T10:20:11.292Z,58.56
2019-03-23T10:21:11.244Z,57.09
2019-03-23T10:22:11.234Z,59.78
2019-03-23T10:23:11.237Z,61.80
2019-03-23T10:24:11.209Z,59.75
2019-03-23T10:25:11.215Z,62.57
2019-03-23T10:26:11.190Z,59.84
2019-03-23T10:27:11.176Z,57.72
2019-03-23T10:28:11.170Z,58.37
2019-03-23T10:29:11.168Z,57.89
2019-03-23T10:30:11.154Z,59.14
2019-03-23T10:31:11.140Z,58.27
2019-03-23T10:32:11.141Z,57.25
2019-03-23T10:33:11.126Z,59.34
2019-03-23T10:34:11.114Z,60.72
2019-03-23T10:35:11.111Z,60.62
2019-03-23T10:36:12.265Z,60.94
2019-03-23T10:37:11.085Z,58.65
2019-03-23T10:38:11.085Z,58.17
2019-03-23T10:39:11.069Z,57.02
2019-03-23T10:40:11.071Z,57.31
2019-03-23T10:41:11.085Z,60.03
2019-03-23T10:42:11.043Z,59.65
2019-03-23T10:43:11.047Z,57.75
2019-03-23T10:44:11.030Z,55.70
2019-03-23T10:45:11.026Z,57.14
2019-03-23T10:46:11.008Z,57.79
2019-03-23T10:47:11.002Z,56.57
2019-03-23T10:48:12.201Z,56.76
2019-03-23T10:49:10.989Z,55.79
2019-03-23T10:50:10.978Z,55.19
2019-03-23T10:51:10.976Z,57.18
2019-03-23T10:52:10.966Z,56.80
2019-03-23T10:53:10.961Z,56.80
2019-03-23T10:54:10.945Z,59.47
2019-03-23T10:55:10.949Z,58.70
2019-03-23T10:56:10.940Z,57.73
2019-03-23T10:57:10.923Z,56.70
2019-03-23T10:58:10.916Z,56.63
2019-03-23T10:59:10.906Z,58.27
2019-03-23T11:00:10.908Z,56.82
2019-03-23T11:01:10.900Z,57.83
2019-03-23T11:02:10.884Z,60.42
2019-03-23T11:03:10.878Z,59.27
2019-03-23T11:04:10.872Z,58.12
2019-03-23T11:05:10.865Z,58.70
2019-03-23T11:06:10.865Z,58.65
2019-03-23T11:07:10.871Z,58.20
2019-03-23T11:08:10.846Z,57.62
2019-03-23T11:09:10.833Z,56.95
2019-03-23T11:10:10.839Z,58.49
2019-03-23T11:11:10.842Z,56.85
2019-03-23T11:12:10.825Z,58.81
2019-03-23T11:13:10.812Z,56.85
2019-03-23T11:14:10.804Z,58.01
2019-03-23T11:15:10.808Z,56.70
2019-03-23T11:16:10.803Z,57.37
2019-03-23T11:17:10.828Z,56.25
2019-03-23T11:18:10.819Z,56.12
2019-03-23T11:19:13.511Z,56.70
2019-03-23T11:20:10.772Z,56.99
2019-03-23T11:21:10.807Z,58.02
2019-03-23T11:22:10.763Z,58.44
2019-03-23T11:23:10.758Z,56.92
2019-03-23T11:24:10.742Z,56.03
2019-03-23T11:25:10.761Z,57.40
2019-03-23T11:26:10.729Z,56.82
2019-03-23T11:27:10.736Z,59.45
2019-03-23T11:28:10.742Z,57.72
2019-03-23T11:29:10.720Z,56.92
2019-03-23T11:30:10.713Z,58.82
2019-03-23T11:31:10.843Z,60.81
2019-03-23T11:32:17.851Z,61.00
2019-03-23T11:34:03.592Z,60.36
2019-03-23T11:35:11.185Z,59.75
2019-03-23T11:37:03.666Z,60.14
2019-03-23T11:37:56.668Z,61.97
2019-03-23T11:38:56.424Z,60.75
2019-03-23T11:39:56.417Z,59.14
2019-03-23T11:40:56.433Z,56.73
2019-03-23T11:41:56.414Z,57.57
2019-03-23T11:42:56.401Z,59.24
2019-03-23T11:43:56.403Z,61.46
2019-03-23T11:44:56.474Z,61.55
2019-03-23T11:45:56.388Z,59.17
2019-03-23T11:46:56.385Z,61.77
2019-03-23T11:47:56.389Z,59.27
2019-03-23T11:48:56.375Z,58.60
2019-03-23T11:49:56.373Z,60.55
2019-03-23T11:50:56.398Z,60.07
2019-03-23T11:51:56.361Z,58.12
2019-03-23T11:52:56.358Z,59.40
2019-03-23T11:53:56.368Z,59.08
2019-03-23T11:54:56.343Z,59.17
2019-03-23T11:55:56.342Z,61.00
2019-03-23T11:56:56.341Z,58.89
2019-03-23T11:57:56.326Z,60.52
2019-03-23T11:58:56.327Z,61.61
2019-03-23T11:59:56.317Z,60.46
2019-03-23T12:00:56.346Z,58.92
2019-03-23T12:02:03.474Z,62.00
2019-03-23T12:03:56.382Z,58.47
2019-03-23T12:04:49.173Z,58.15
2019-03-23T12:06:42.075Z,56.99
2019-03-23T12:07:42.059Z,58.08
2019-03-23T12:09:34.939Z,58.17
2019-03-23T12:10:34.923Z,57.98
2019-03-23T12:12:27.792Z,57.12
2019-03-23T12:13:27.791Z,56.54
2019-03-23T12:15:20.695Z,57.67
2019-03-23T12:16:20.650Z,57.25
2019-03-23T12:18:13.537Z,57.28
2019-03-23T12:19:13.518Z,58.12
2019-03-23T12:21:06.410Z,59.01
2019-03-23T12:22:06.403Z,59.97
2019-03-23T12:23:59.280Z,59.14
2019-03-23T12:24:59.264Z,57.47
2019-03-23T12:26:52.153Z,59.78
2019-03-23T12:27:52.137Z,57.95
2019-03-23T12:29:45.043Z,58.85
2019-03-23T12:30:45.010Z,56.82
2019-03-23T12:32:37.885Z,58.92
2019-03-23T12:33:37.898Z,58.95
2019-03-23T12:35:30.761Z,58.27
2019-03-23T12:36:30.742Z,58.56
2019-03-23T12:38:23.619Z,57.69
2019-03-23T12:39:23.609Z,58.17
2019-03-23T12:41:22.998Z,57.40
2019-03-23T12:42:16.476Z,58.17
2019-03-23T12:44:09.356Z,57.02
2019-03-23T12:45:09.353Z,57.21
2019-03-23T12:47:02.841Z,57.82
2019-03-23T12:48:02.415Z,58.65
2019-03-23T12:49:55.826Z,58.08
2019-03-23T12:50:55.779Z,57.95
2019-03-23T12:51:55.780Z,58.92
2019-03-23T12:52:57.483Z,58.34
2019-03-23T12:53:55.766Z,58.75
2019-03-23T12:54:55.765Z,57.02
2019-03-23T12:55:55.759Z,56.66
2019-03-23T12:56:55.756Z,57.34
2019-03-23T12:57:55.762Z,56.09
2019-03-23T12:58:55.748Z,57.65
2019-03-23T12:59:55.743Z,56.88
2019-03-23T13:00:55.749Z,55.31
2019-03-23T13:01:55.743Z,55.79
2019-03-23T13:02:55.737Z,54.64
2019-03-23T13:03:55.731Z,55.22
2019-03-23T13:04:55.730Z,56.40
2019-03-23T13:05:55.727Z,55.05
2019-03-23T13:06:55.714Z,56.79
2019-03-23T13:07:55.717Z,57.10
2019-03-23T13:08:55.732Z,56.04